sensor_id;sensor_type;location;lat;lon;timestamp;P1;durP1;ratioP1;P2;durP2;ratioP2
61685;SDS011;47592;45.904;8.978;2022-10-16T00:01:17;23.85;;;16.52;;
61685;SDS011;47592;45.904;8.978;2022-10-16T00:03:43;24.58;;;16.45;;
61685;SDS011;47592;45.904;8.978;2022-10-16T00:06:10;23.58;;;16.13;;
61685;SDS011;47592;45.904;8.978;2022-10-16T00:08:36;23.48;;;16.00;;
61685;SDS011;47592;45.904;8.978;2022-10-16T00:11:04;22.98;;;16.52;;
61685;SDS011;47592;45.904;8.978;2022-10-16T00:13:32;24.30;;;17.42;;
61685;SDS011;47592;45.904;8.978;2022-10-16T00:15:58;25.30;;;16.92;;
61685;SDS011;47592;45.904;8.978;2022-10-16T00:18:25;22.95;;;16.25;;
61685;SDS011;47592;45.904;8.978;2022-10-16T00:20:51;23.13;;;16.88;;
61685;SDS011;47592;45.904;8.978;2022-10-16T00:23:18;23.73;;;17.30;;
61685;SDS011;47592;45.904;8.978;2022-10-16T00:25:44;22.95;;;16.58;;
61685;SDS011;47592;45.904;8.978;2022-10-16T00:28:10;22.90;;;16.38;;
61685;SDS011;47592;45.904;8.978;2022-10-16T00:30:38;23.20;;;16.73;;
61685;SDS011;47592;45.904;8.978;2022-10-16T00:33:04;23.67;;;16.47;;
61685;SDS011;47592;45.904;8.978;2022-10-16T00:35:30;23.92;;;16.58;;
61685;SDS011;47592;45.904;8.978;2022-10-16T00:37:55;20.90;;;15.93;;
61685;SDS011;47592;45.904;8.978;2022-10-16T00:40:21;23.45;;;16.15;;
61685;SDS011;47592;45.904;8.978;2022-10-16T00:42:46;22.15;;;16.45;;
61685;SDS011;47592;45.904;8.978;2022-10-16T00:45:11;20.30;;;15.38;;
61685;SDS011;47592;45.904;8.978;2022-10-16T00:47:39;22.80;;;16.10;;
61685;SDS011;47592;45.904;8.978;2022-10-16T00:52:36;21.50;;;15.70;;
61685;SDS011;47592;45.904;8.978;2022-10-16T00:55:04;18.05;;;14.20;;
61685;SDS011;47592;45.904;8.978;2022-10-16T00:57:31;22.58;;;15.73;;
61685;SDS011;47592;45.904;8.978;2022-10-16T00:59:56;20.90;;;15.43;;
61685;SDS011;47592;45.904;8.978;2022-10-16T01:02:22;21.38;;;15.43;;
61685;SDS011;47592;45.904;8.978;2022-10-16T01:04:49;22.77;;;16.05;;
61685;SDS011;47592;45.904;8.978;2022-10-16T01:13:11;21.20;;;15.20;;
61685;SDS011;47592;45.904;8.978;2022-10-16T01:21:04;21.73;;;14.98;;
61685;SDS011;47592;45.904;8.978;2022-10-16T01:31:47;24.35;;;16.33;;
61685;SDS011;47592;45.904;8.978;2022-10-16T01:34:16;25.58;;;16.42;;
61685;SDS011;47592;45.904;8.978;2022-10-16T01:36:55;23.58;;;15.32;;
61685;SDS011;47592;45.904;8.978;2022-10-16T01:39:22;22.15;;;16.17;;
61685;SDS011;47592;45.904;8.978;2022-10-16T01:41:52;23.33;;;17.05;;
61685;SDS011;47592;45.904;8.978;2022-10-16T01:44:31;24.90;;;17.17;;
61685;SDS011;47592;45.904;8.978;2022-10-16T01:46:57;22.70;;;17.00;;
61685;SDS011;47592;45.904;8.978;2022-10-16T01:49:24;24.65;;;16.98;;
61685;SDS011;47592;45.904;8.978;2022-10-16T01:51:52;25.35;;;17.20;;
61685;SDS011;47592;45.904;8.978;2022-10-16T01:54:20;22.45;;;15.98;;
61685;SDS011;47592;45.904;8.978;2022-10-16T01:56:46;25.08;;;16.70;;
61685;SDS011;47592;45.904;8.978;2022-10-16T01:59:13;25.77;;;17.25;;
61685;SDS011;47592;45.904;8.978;2022-10-16T02:01:45;23.58;;;16.70;;
61685;SDS011;47592;45.904;8.978;2022-10-16T02:04:14;27.40;;;16.98;;
61685;SDS011;47592;45.904;8.978;2022-10-16T02:06:41;23.40;;;17.83;;
61685;SDS011;47592;45.904;8.978;2022-10-16T02:09:07;26.60;;;17.48;;
61685;SDS011;47592;45.904;8.978;2022-10-16T02:11:32;22.17;;;16.73;;
61685;SDS011;47592;45.904;8.978;2022-10-16T02:14:01;23.92;;;16.52;;
61685;SDS011;47592;45.904;8.978;2022-10-16T02:16:33;22.98;;;16.70;;
61685;SDS011;47592;45.904;8.978;2022-10-16T02:19:00;25.67;;;17.80;;
61685;SDS011;47592;45.904;8.978;2022-10-16T02:21:26;24.85;;;17.80;;
61685;SDS011;47592;45.904;8.978;2022-10-16T02:24:02;24.83;;;17.08;;
61685;SDS011;47592;45.904;8.978;2022-10-16T02:26:36;24.23;;;16.15;;
61685;SDS011;47592;45.904;8.978;2022-10-16T02:29:07;22.88;;;16.92;;
61685;SDS011;47592;45.904;8.978;2022-10-16T02:31:35;26.80;;;16.83;;
61685;SDS011;47592;45.904;8.978;2022-10-16T02:34:01;24.70;;;16.50;;
61685;SDS011;47592;45.904;8.978;2022-10-16T02:36:28;23.27;;;16.52;;
61685;SDS011;47592;45.904;8.978;2022-10-16T02:38:54;26.27;;;17.63;;
61685;SDS011;47592;45.904;8.978;2022-10-16T02:41:20;25.23;;;16.70;;
61685;SDS011;47592;45.904;8.978;2022-10-16T02:43:46;22.05;;;16.20;;
61685;SDS011;47592;45.904;8.978;2022-10-16T02:46:11;23.73;;;16.73;;
61685;SDS011;47592;45.904;8.978;2022-10-16T02:48:37;24.02;;;16.20;;
61685;SDS011;47592;45.904;8.978;2022-10-16T02:51:02;23.48;;;16.55;;
61685;SDS011;47592;45.904;8.978;2022-10-16T02:53:28;23.52;;;16.63;;
61685;SDS011;47592;45.904;8.978;2022-10-16T02:55:53;26.30;;;16.70;;
61685;SDS011;47592;45.904;8.978;2022-10-16T02:58:18;24.77;;;17.17;;
61685;SDS011;47592;45.904;8.978;2022-10-16T03:00:44;22.98;;;16.55;;
61685;SDS011;47592;45.904;8.978;2022-10-16T03:03:10;23.38;;;17.80;;
61685;SDS011;47592;45.904;8.978;2022-10-16T03:05:36;23.08;;;16.63;;
61685;SDS011;47592;45.904;8.978;2022-10-16T03:08:01;25.60;;;17.08;;
61685;SDS011;47592;45.904;8.978;2022-10-16T03:10:28;24.55;;;17.13;;
61685;SDS011;47592;45.904;8.978;2022-10-16T03:12:53;25.08;;;17.23;;
61685;SDS011;47592;45.904;8.978;2022-10-16T03:15:18;26.60;;;17.90;;
61685;SDS011;47592;45.904;8.978;2022-10-16T03:17:44;26.00;;;18.45;;
61685;SDS011;47592;45.904;8.978;2022-10-16T03:20:09;27.80;;;18.80;;
61685;SDS011;47592;45.904;8.978;2022-10-16T03:22:35;24.48;;;17.90;;
61685;SDS011;47592;45.904;8.978;2022-10-16T03:25:00;24.25;;;18.08;;
61685;SDS011;47592;45.904;8.978;2022-10-16T03:27:26;24.23;;;18.67;;
61685;SDS011;47592;45.904;8.978;2022-10-16T03:29:51;25.98;;;18.05;;
61685;SDS011;47592;45.904;8.978;2022-10-16T03:32:16;22.90;;;17.13;;
61685;SDS011;47592;45.904;8.978;2022-10-16T03:34:42;24.05;;;18.20;;
61685;SDS011;47592;45.904;8.978;2022-10-16T03:37:07;25.00;;;17.23;;
61685;SDS011;47592;45.904;8.978;2022-10-16T03:39:33;25.45;;;17.88;;
61685;SDS011;47592;45.904;8.978;2022-10-16T03:41:58;23.95;;;17.23;;
61685;SDS011;47592;45.904;8.978;2022-10-16T03:44:24;24.48;;;17.10;;
61685;SDS011;47592;45.904;8.978;2022-10-16T03:46:49;23.63;;;18.02;;
61685;SDS011;47592;45.904;8.978;2022-10-16T03:49:14;25.45;;;17.88;;
61685;SDS011;47592;45.904;8.978;2022-10-16T03:51:40;23.55;;;16.80;;
61685;SDS011;47592;45.904;8.978;2022-10-16T03:54:05;23.23;;;16.77;;
61685;SDS011;47592;45.904;8.978;2022-10-16T03:56:31;27.23;;;16.67;;
61685;SDS011;47592;45.904;8.978;2022-10-16T03:58:56;21.77;;;15.43;;
61685;SDS011;47592;45.904;8.978;2022-10-16T04:01:21;23.67;;;15.93;;
61685;SDS011;47592;45.904;8.978;2022-10-16T04:03:47;22.15;;;16.17;;
61685;SDS011;47592;45.904;8.978;2022-10-16T04:06:12;23.90;;;16.45;;
61685;SDS011;47592;45.904;8.978;2022-10-16T04:08:38;25.95;;;17.40;;
61685;SDS011;47592;45.904;8.978;2022-10-16T04:11:04;23.17;;;16.52;;
61685;SDS011;47592;45.904;8.978;2022-10-16T04:13:29;22.45;;;16.80;;
61685;SDS011;47592;45.904;8.978;2022-10-16T04:15:55;23.48;;;18.05;;
61685;SDS011;47592;45.904;8.978;2022-10-16T04:18:20;23.60;;;17.67;;
61685;SDS011;47592;45.904;8.978;2022-10-16T04:20:45;21.77;;;15.90;;
61685;SDS011;47592;45.904;8.978;2022-10-16T04:23:11;23.17;;;16.80;;
61685;SDS011;47592;45.904;8.978;2022-10-16T04:25:36;22.83;;;16.30;;
61685;SDS011;47592;45.904;8.978;2022-10-16T04:28:02;22.63;;;16.15;;
61685;SDS011;47592;45.904;8.978;2022-10-16T04:30:28;24.15;;;17.30;;
61685;SDS011;47592;45.904;8.978;2022-10-16T04:32:53;21.42;;;16.13;;
61685;SDS011;47592;45.904;8.978;2022-10-16T04:35:20;21.88;;;15.65;;
61685;SDS011;47592;45.904;8.978;2022-10-16T04:37:46;20.20;;;15.73;;
61685;SDS011;47592;45.904;8.978;2022-10-16T04:40:11;23.63;;;17.17;;
61685;SDS011;47592;45.904;8.978;2022-10-16T04:42:37;23.60;;;16.10;;
61685;SDS011;47592;45.904;8.978;2022-10-16T04:45:03;22.15;;;16.67;;
61685;SDS011;47592;45.904;8.978;2022-10-16T04:47:30;20.65;;;16.33;;
61685;SDS011;47592;45.904;8.978;2022-10-16T04:49:55;22.90;;;16.40;;
61685;SDS011;47592;45.904;8.978;2022-10-16T04:52:21;21.20;;;15.73;;
61685;SDS011;47592;45.904;8.978;2022-10-16T04:54:49;21.10;;;16.15;;
61685;SDS011;47592;45.904;8.978;2022-10-16T04:57:15;22.10;;;15.80;;
61685;SDS011;47592;45.904;8.978;2022-10-16T04:59:40;20.73;;;15.00;;
61685;SDS011;47592;45.904;8.978;2022-10-16T05:02:06;21.55;;;15.38;;
61685;SDS011;47592;45.904;8.978;2022-10-16T05:04:31;21.77;;;16.05;;
61685;SDS011;47592;45.904;8.978;2022-10-16T05:06:57;19.13;;;15.10;;
61685;SDS011;47592;45.904;8.978;2022-10-16T05:09:22;21.63;;;16.35;;
61685;SDS011;47592;45.904;8.978;2022-10-16T05:11:47;22.48;;;16.20;;
61685;SDS011;47592;45.904;8.978;2022-10-16T05:14:13;18.83;;;15.05;;
61685;SDS011;47592;45.904;8.978;2022-10-16T05:16:38;19.55;;;14.63;;
61685;SDS011;47592;45.904;8.978;2022-10-16T05:19:03;22.45;;;15.88;;
61685;SDS011;47592;45.904;8.978;2022-10-16T05:21:29;20.13;;;15.52;;
61685;SDS011;47592;45.904;8.978;2022-10-16T05:23:54;18.85;;;14.80;;
61685;SDS011;47592;45.904;8.978;2022-10-16T05:26:20;21.30;;;15.45;;
61685;SDS011;47592;45.904;8.978;2022-10-16T05:28:45;18.95;;;14.63;;
61685;SDS011;47592;45.904;8.978;2022-10-16T05:31:11;20.92;;;14.70;;
61685;SDS011;47592;45.904;8.978;2022-10-16T05:33:36;21.15;;;15.02;;
61685;SDS011;47592;45.904;8.978;2022-10-16T05:36:06;19.48;;;14.45;;
61685;SDS011;47592;45.904;8.978;2022-10-16T05:38:33;19.33;;;14.32;;
61685;SDS011;47592;45.904;8.978;2022-10-16T05:40:59;18.95;;;13.98;;
61685;SDS011;47592;45.904;8.978;2022-10-16T05:43:24;19.95;;;13.80;;
61685;SDS011;47592;45.904;8.978;2022-10-16T05:45:59;19.67;;;13.85;;
61685;SDS011;47592;45.904;8.978;2022-10-16T05:48:27;18.55;;;13.88;;
61685;SDS011;47592;45.904;8.978;2022-10-16T05:50:56;19.55;;;13.73;;
61685;SDS011;47592;45.904;8.978;2022-10-16T05:53:23;21.02;;;14.55;;
61685;SDS011;47592;45.904;8.978;2022-10-16T05:55:54;22.02;;;13.60;;
61685;SDS011;47592;45.904;8.978;2022-10-16T05:58:20;18.27;;;13.52;;
61685;SDS011;47592;45.904;8.978;2022-10-16T06:00:52;19.65;;;13.77;;
61685;SDS011;47592;45.904;8.978;2022-10-16T06:03:18;18.95;;;13.52;;
61685;SDS011;47592;45.904;8.978;2022-10-16T06:05:43;18.50;;;13.43;;
61685;SDS011;47592;45.904;8.978;2022-10-16T06:08:09;20.15;;;14.23;;
61685;SDS011;47592;45.904;8.978;2022-10-16T06:10:34;19.17;;;14.35;;
61685;SDS011;47592;45.904;8.978;2022-10-16T06:13:00;18.52;;;13.77;;
61685;SDS011;47592;45.904;8.978;2022-10-16T06:15:25;22.92;;;14.68;;
61685;SDS011;47592;45.904;8.978;2022-10-16T06:17:50;20.38;;;14.63;;
61685;SDS011;47592;45.904;8.978;2022-10-16T06:20:16;18.23;;;14.25;;
61685;SDS011;47592;45.904;8.978;2022-10-16T06:22:41;19.58;;;14.07;;
61685;SDS011;47592;45.904;8.978;2022-10-16T06:25:06;20.95;;;13.93;;
61685;SDS011;47592;45.904;8.978;2022-10-16T06:27:32;21.27;;;14.05;;
61685;SDS011;47592;45.904;8.978;2022-10-16T06:29:58;21.75;;;14.20;;
61685;SDS011;47592;45.904;8.978;2022-10-16T06:32:23;19.27;;;14.30;;
61685;SDS011;47592;45.904;8.978;2022-10-16T06:34:49;18.98;;;14.35;;
61685;SDS011;47592;45.904;8.978;2022-10-16T06:37:14;18.48;;;13.90;;
61685;SDS011;47592;45.904;8.978;2022-10-16T06:39:40;21.92;;;14.23;;
61685;SDS011;47592;45.904;8.978;2022-10-16T06:42:05;19.45;;;14.07;;
61685;SDS011;47592;45.904;8.978;2022-10-16T06:44:30;19.85;;;13.57;;
61685;SDS011;47592;45.904;8.978;2022-10-16T06:46:56;19.02;;;13.73;;
61685;SDS011;47592;45.904;8.978;2022-10-16T06:49:21;18.90;;;13.45;;
61685;SDS011;47592;45.904;8.978;2022-10-16T06:51:47;18.73;;;13.02;;
61685;SDS011;47592;45.904;8.978;2022-10-16T06:54:14;17.95;;;13.35;;
61685;SDS011;47592;45.904;8.978;2022-10-16T06:56:40;17.65;;;13.38;;
61685;SDS011;47592;45.904;8.978;2022-10-16T06:59:05;19.13;;;14.27;;
61685;SDS011;47592;45.904;8.978;2022-10-16T07:01:30;17.42;;;13.57;;
61685;SDS011;47592;45.904;8.978;2022-10-16T07:03:56;21.10;;;14.13;;
61685;SDS011;47592;45.904;8.978;2022-10-16T07:06:22;17.85;;;13.10;;
61685;SDS011;47592;45.904;8.978;2022-10-16T07:08:48;16.98;;;13.63;;
61685;SDS011;47592;45.904;8.978;2022-10-16T07:11:15;19.67;;;13.63;;
61685;SDS011;47592;45.904;8.978;2022-10-16T07:13:44;20.33;;;14.05;;
61685;SDS011;47592;45.904;8.978;2022-10-16T07:16:11;17.83;;;13.15;;
61685;SDS011;47592;45.904;8.978;2022-10-16T07:18:38;18.65;;;13.57;;
61685;SDS011;47592;45.904;8.978;2022-10-16T07:21:06;19.05;;;13.10;;
61685;SDS011;47592;45.904;8.978;2022-10-16T07:23:32;16.85;;;12.50;;
61685;SDS011;47592;45.904;8.978;2022-10-16T07:25:58;20.63;;;14.25;;
61685;SDS011;47592;45.904;8.978;2022-10-16T07:28:23;17.80;;;12.80;;
61685;SDS011;47592;45.904;8.978;2022-10-16T07:30:48;22.00;;;13.30;;
61685;SDS011;47592;45.904;8.978;2022-10-16T07:33:14;19.30;;;13.18;;
61685;SDS011;47592;45.904;8.978;2022-10-16T07:35:52;16.98;;;13.35;;
61685;SDS011;47592;45.904;8.978;2022-10-16T07:38:18;19.77;;;13.67;;
61685;SDS011;47592;45.904;8.978;2022-10-16T07:40:44;17.52;;;13.15;;
61685;SDS011;47592;45.904;8.978;2022-10-16T07:43:10;20.63;;;13.13;;
61685;SDS011;47592;45.904;8.978;2022-10-16T07:45:36;21.55;;;13.32;;
61685;SDS011;47592;45.904;8.978;2022-10-16T07:48:01;17.23;;;13.18;;
61685;SDS011;47592;45.904;8.978;2022-10-16T07:50:27;16.73;;;12.77;;
61685;SDS011;47592;45.904;8.978;2022-10-16T07:52:52;18.45;;;13.38;;
61685;SDS011;47592;45.904;8.978;2022-10-16T07:55:17;18.40;;;13.48;;
61685;SDS011;47592;45.904;8.978;2022-10-16T07:57:43;21.02;;;13.65;;
61685;SDS011;47592;45.904;8.978;2022-10-16T08:00:09;19.58;;;12.85;;
61685;SDS011;47592;45.904;8.978;2022-10-16T08:02:39;17.83;;;12.90;;
61685;SDS011;47592;45.904;8.978;2022-10-16T08:05:05;18.45;;;13.95;;
61685;SDS011;47592;45.904;8.978;2022-10-16T08:07:31;20.77;;;13.35;;
61685;SDS011;47592;45.904;8.978;2022-10-16T08:09:56;21.33;;;14.52;;
61685;SDS011;47592;45.904;8.978;2022-10-16T08:12:23;21.27;;;14.88;;
61685;SDS011;47592;45.904;8.978;2022-10-16T08:14:50;19.98;;;13.77;;
61685;SDS011;47592;45.904;8.978;2022-10-16T08:17:16;20.63;;;14.63;;
61685;SDS011;47592;45.904;8.978;2022-10-16T08:19:45;18.85;;;13.80;;
61685;SDS011;47592;45.904;8.978;2022-10-16T08:22:11;20.20;;;14.13;;
61685;SDS011;47592;45.904;8.978;2022-10-16T08:24:36;18.65;;;13.35;;
61685;SDS011;47592;45.904;8.978;2022-10-16T08:27:02;25.27;;;14.38;;
61685;SDS011;47592;45.904;8.978;2022-10-16T08:29:28;18.55;;;12.73;;
61685;SDS011;47592;45.904;8.978;2022-10-16T08:31:53;16.33;;;12.20;;
61685;SDS011;47592;45.904;8.978;2022-10-16T08:34:19;17.80;;;12.25;;
61685;SDS011;47592;45.904;8.978;2022-10-16T08:36:44;15.90;;;12.27;;
61685;SDS011;47592;45.904;8.978;2022-10-16T08:39:10;16.15;;;11.75;;
61685;SDS011;47592;45.904;8.978;2022-10-16T08:48:24;16.38;;;11.90;;
61685;SDS011;47592;45.904;8.978;2022-10-16T08:50:36;16.30;;;11.45;;
61685;SDS011;47592;45.904;8.978;2022-10-16T08:53:03;15.40;;;11.35;;
61685;SDS011;47592;45.904;8.978;2022-10-16T08:57:55;16.17;;;11.32;;
61685;SDS011;47592;45.904;8.978;2022-10-16T09:00:21;20.33;;;11.73;;
61685;SDS011;47592;45.904;8.978;2022-10-16T09:05:33;15.88;;;12.18;;
61685;SDS011;47592;45.904;8.978;2022-10-16T09:08:13;17.33;;;11.95;;
61685;SDS011;47592;45.904;8.978;2022-10-16T09:10:59;16.02;;;11.52;;
61685;SDS011;47592;45.904;8.978;2022-10-16T09:13:35;18.20;;;12.60;;
61685;SDS011;47592;45.904;8.978;2022-10-16T09:16:27;16.67;;;11.25;;
61685;SDS011;47592;45.904;8.978;2022-10-16T09:21:41;16.02;;;11.25;;
61685;SDS011;47592;45.904;8.978;2022-10-16T09:26:43;15.85;;;11.52;;
61685;SDS011;47592;45.904;8.978;2022-10-16T09:29:16;16.45;;;11.18;;
61685;SDS011;47592;45.904;8.978;2022-10-16T09:31:46;15.20;;;11.45;;
61685;SDS011;47592;45.904;8.978;2022-10-16T09:34:17;17.00;;;11.82;;
61685;SDS011;47592;45.904;8.978;2022-10-16T09:36:51;17.02;;;11.30;;
61685;SDS011;47592;45.904;8.978;2022-10-16T09:39:17;14.25;;;10.98;;
61685;SDS011;47592;45.904;8.978;2022-10-16T09:41:43;16.73;;;10.93;;
61685;SDS011;47592;45.904;8.978;2022-10-16T09:44:20;17.73;;;11.13;;
61685;SDS011;47592;45.904;8.978;2022-10-16T09:47:04;14.85;;;11.40;;
61685;SDS011;47592;45.904;8.978;2022-10-16T09:49:35;14.75;;;11.55;;
61685;SDS011;47592;45.904;8.978;2022-10-16T09:52:14;15.88;;;11.73;;
61685;SDS011;47592;45.904;8.978;2022-10-16T09:54:50;14.55;;;11.10;;
61685;SDS011;47592;45.904;8.978;2022-10-16T09:57:17;19.25;;;11.18;;
61685;SDS011;47592;45.904;8.978;2022-10-16T09:59:46;16.58;;;11.45;;
61685;SDS011;47592;45.904;8.978;2022-10-16T10:02:34;16.27;;;11.23;;
61685;SDS011;47592;45.904;8.978;2022-10-16T10:05:00;14.80;;;10.52;;
61685;SDS011;47592;45.904;8.978;2022-10-16T10:07:28;15.32;;;10.20;;
61685;SDS011;47592;45.904;8.978;2022-10-16T10:10:01;13.93;;;10.10;;
61685;SDS011;47592;45.904;8.978;2022-10-16T10:14:58;15.35;;;10.32;;
61685;SDS011;47592;45.904;8.978;2022-10-16T10:17:28;14.68;;;10.85;;
61685;SDS011;47592;45.904;8.978;2022-10-16T10:19:58;14.43;;;10.88;;
61685;SDS011;47592;45.904;8.978;2022-10-16T10:22:44;14.20;;;10.40;;
61685;SDS011;47592;45.904;8.978;2022-10-16T10:35:45;13.88;;;9.48;;
61685;SDS011;47592;45.904;8.978;2022-10-16T10:46:16;13.70;;;9.82;;
61685;SDS011;47592;45.904;8.978;2022-10-16T10:51:29;15.40;;;10.43;;
61685;SDS011;47592;45.904;8.978;2022-10-16T10:59:08;15.52;;;11.05;;
61685;SDS011;47592;45.904;8.978;2022-10-16T11:07:20;13.02;;;9.77;;
61685;SDS011;47592;45.904;8.978;2022-10-16T11:09:53;13.85;;;10.13;;
61685;SDS011;47592;45.904;8.978;2022-10-16T11:12:25;13.48;;;10.38;;
61685;SDS011;47592;45.904;8.978;2022-10-16T11:14:57;13.07;;;10.65;;
61685;SDS011;47592;45.904;8.978;2022-10-16T11:17:30;13.02;;;9.60;;
61685;SDS011;47592;45.904;8.978;2022-10-16T11:22:59;14.15;;;10.57;;
61685;SDS011;47592;45.904;8.978;2022-10-16T11:27:57;13.60;;;10.33;;
61685;SDS011;47592;45.904;8.978;2022-10-16T11:30:34;16.98;;;11.45;;
61685;SDS011;47592;45.904;8.978;2022-10-16T11:38:51;15.93;;;11.88;;
61685;SDS011;47592;45.904;8.978;2022-10-16T11:49:53;19.98;;;13.85;;
61685;SDS011;47592;45.904;8.978;2022-10-16T11:52:28;20.55;;;14.18;;
61685;SDS011;47592;45.904;8.978;2022-10-16T11:55:17;17.27;;;13.35;;
61685;SDS011;47592;45.904;8.978;2022-10-16T11:58:15;20.15;;;14.05;;
61685;SDS011;47592;45.904;8.978;2022-10-16T12:01:05;19.17;;;13.90;;
61685;SDS011;47592;45.904;8.978;2022-10-16T12:03:42;22.02;;;14.30;;
61685;SDS011;47592;45.904;8.978;2022-10-16T12:08:49;22.98;;;15.13;;
61685;SDS011;47592;45.904;8.978;2022-10-16T12:14:07;20.55;;;15.00;;
61685;SDS011;47592;45.904;8.978;2022-10-16T12:16:54;18.75;;;13.35;;
61685;SDS011;47592;45.904;8.978;2022-10-16T12:19:30;21.05;;;14.15;;
61685;SDS011;47592;45.904;8.978;2022-10-16T12:21:57;22.07;;;14.57;;
61685;SDS011;47592;45.904;8.978;2022-10-16T12:24:36;19.55;;;14.60;;
61685;SDS011;47592;45.904;8.978;2022-10-16T12:27:04;19.77;;;14.55;;
61685;SDS011;47592;45.904;8.978;2022-10-16T12:29:37;22.02;;;14.65;;
61685;SDS011;47592;45.904;8.978;2022-10-16T12:32:05;20.33;;;15.38;;
61685;SDS011;47592;45.904;8.978;2022-10-16T12:34:47;20.90;;;14.73;;
61685;SDS011;47592;45.904;8.978;2022-10-16T12:40:46;20.67;;;14.90;;
61685;SDS011;47592;45.904;8.978;2022-10-16T12:42:53;20.38;;;15.05;;
61685;SDS011;47592;45.904;8.978;2022-10-16T12:47:54;20.35;;;14.30;;
61685;SDS011;47592;45.904;8.978;2022-10-16T12:50:28;22.70;;;14.73;;
61685;SDS011;47592;45.904;8.978;2022-10-16T12:52:55;22.50;;;16.25;;
61685;SDS011;47592;45.904;8.978;2022-10-16T12:55:21;22.35;;;14.98;;
61685;SDS011;47592;45.904;8.978;2022-10-16T13:12:12;20.13;;;14.90;;
61685;SDS011;47592;45.904;8.978;2022-10-16T13:28:32;24.70;;;15.77;;
61685;SDS011;47592;45.904;8.978;2022-10-16T13:30:59;23.50;;;14.93;;
61685;SDS011;47592;45.904;8.978;2022-10-16T13:33:39;24.08;;;16.05;;
61685;SDS011;47592;45.904;8.978;2022-10-16T13:36:17;21.40;;;15.15;;
61685;SDS011;47592;45.904;8.978;2022-10-16T13:38:44;23.23;;;16.50;;
61685;SDS011;47592;45.904;8.978;2022-10-16T13:41:14;22.92;;;15.70;;
61685;SDS011;47592;45.904;8.978;2022-10-16T13:43:50;25.52;;;15.88;;
61685;SDS011;47592;45.904;8.978;2022-10-16T13:46:18;23.63;;;16.73;;
61685;SDS011;47592;45.904;8.978;2022-10-16T13:48:57;25.02;;;17.00;;
61685;SDS011;47592;45.904;8.978;2022-10-16T13:51:27;25.95;;;18.00;;
61685;SDS011;47592;45.904;8.978;2022-10-16T13:53:54;28.55;;;17.15;;
61685;SDS011;47592;45.904;8.978;2022-10-16T13:56:21;25.27;;;17.15;;
61685;SDS011;47592;45.904;8.978;2022-10-16T13:59:00;27.27;;;18.10;;
61685;SDS011;47592;45.904;8.978;2022-10-16T14:01:33;26.15;;;17.70;;
61685;SDS011;47592;45.904;8.978;2022-10-16T14:04:01;26.75;;;18.30;;
61685;SDS011;47592;45.904;8.978;2022-10-16T14:06:28;28.48;;;18.55;;
61685;SDS011;47592;45.904;8.978;2022-10-16T14:09:06;26.90;;;18.98;;
61685;SDS011;47592;45.904;8.978;2022-10-16T14:11:42;27.25;;;18.42;;
61685;SDS011;47592;45.904;8.978;2022-10-16T14:14:11;31.10;;;20.55;;
61685;SDS011;47592;45.904;8.978;2022-10-16T14:16:37;31.77;;;20.83;;
61685;SDS011;47592;45.904;8.978;2022-10-16T14:19:06;29.45;;;20.65;;
61685;SDS011;47592;45.904;8.978;2022-10-16T14:21:32;29.58;;;18.73;;
61685;SDS011;47592;45.904;8.978;2022-10-16T14:23:58;29.63;;;20.00;;
61685;SDS011;47592;45.904;8.978;2022-10-16T14:26:25;30.35;;;20.02;;
61685;SDS011;47592;45.904;8.978;2022-10-16T14:29:03;27.38;;;19.52;;
61685;SDS011;47592;45.904;8.978;2022-10-16T14:31:35;30.85;;;19.75;;
61685;SDS011;47592;45.904;8.978;2022-10-16T14:34:02;28.33;;;20.13;;
61685;SDS011;47592;45.904;8.978;2022-10-16T14:36:27;32.97;;;20.65;;
61685;SDS011;47592;45.904;8.978;2022-10-16T14:39:06;36.40;;;22.15;;
61685;SDS011;47592;45.904;8.978;2022-10-16T14:41:43;30.08;;;21.25;;
61685;SDS011;47592;45.904;8.978;2022-10-16T14:44:12;31.30;;;21.65;;
61685;SDS011;47592;45.904;8.978;2022-10-16T14:46:38;32.15;;;21.73;;
61685;SDS011;47592;45.904;8.978;2022-10-16T14:51:33;32.85;;;21.25;;
61685;SDS011;47592;45.904;8.978;2022-10-16T14:53:59;32.17;;;20.08;;
61685;SDS011;47592;45.904;8.978;2022-10-16T14:56:25;29.13;;;20.50;;
61685;SDS011;47592;45.904;8.978;2022-10-16T14:58:54;32.13;;;21.48;;
61685;SDS011;47592;45.904;8.978;2022-10-16T15:01:20;30.55;;;21.15;;
61685;SDS011;47592;45.904;8.978;2022-10-16T15:03:45;33.70;;;21.77;;
61685;SDS011;47592;45.904;8.978;2022-10-16T15:06:11;34.05;;;20.55;;
61685;SDS011;47592;45.904;8.978;2022-10-16T15:08:38;31.75;;;21.23;;
61685;SDS011;47592;45.904;8.978;2022-10-16T15:11:04;32.28;;;22.73;;
61685;SDS011;47592;45.904;8.978;2022-10-16T15:13:29;31.15;;;21.48;;
61685;SDS011;47592;45.904;8.978;2022-10-16T15:15:55;33.15;;;22.17;;
61685;SDS011;47592;45.904;8.978;2022-10-16T15:18:20;33.15;;;21.10;;
61685;SDS011;47592;45.904;8.978;2022-10-16T15:20:48;35.40;;;21.63;;
61685;SDS011;47592;45.904;8.978;2022-10-16T15:23:15;32.80;;;22.75;;
61685;SDS011;47592;45.904;8.978;2022-10-16T15:28:10;36.95;;;22.10;;
61685;SDS011;47592;45.904;8.978;2022-10-16T15:30:36;35.85;;;22.77;;
61685;SDS011;47592;45.904;8.978;2022-10-16T15:33:02;36.60;;;22.75;;
61685;SDS011;47592;45.904;8.978;2022-10-16T15:35:28;33.47;;;22.92;;
61685;SDS011;47592;45.904;8.978;2022-10-16T15:37:54;32.15;;;21.63;;
61685;SDS011;47592;45.904;8.978;2022-10-16T15:40:20;31.10;;;21.67;;
61685;SDS011;47592;45.904;8.978;2022-10-16T15:42:46;30.52;;;21.52;;
61685;SDS011;47592;45.904;8.978;2022-10-16T15:45:12;34.42;;;22.08;;
61685;SDS011;47592;45.904;8.978;2022-10-16T15:47:38;34.05;;;22.00;;
61685;SDS011;47592;45.904;8.978;2022-10-16T15:50:04;31.50;;;22.42;;
61685;SDS011;47592;45.904;8.978;2022-10-16T15:52:30;35.22;;;22.85;;
61685;SDS011;47592;45.904;8.978;2022-10-16T15:54:57;35.80;;;23.20;;
61685;SDS011;47592;45.904;8.978;2022-10-16T15:57:23;33.40;;;23.35;;
61685;SDS011;47592;45.904;8.978;2022-10-16T15:59:49;37.28;;;23.17;;
61685;SDS011;47592;45.904;8.978;2022-10-16T16:02:15;35.22;;;23.75;;
61685;SDS011;47592;45.904;8.978;2022-10-16T16:04:40;36.00;;;24.20;;
61685;SDS011;47592;45.904;8.978;2022-10-16T16:07:07;36.65;;;24.30;;
61685;SDS011;47592;45.904;8.978;2022-10-16T16:09:32;38.05;;;25.40;;
61685;SDS011;47592;45.904;8.978;2022-10-16T16:11:58;37.03;;;24.63;;
61685;SDS011;47592;45.904;8.978;2022-10-16T16:14:25;37.42;;;26.77;;
61685;SDS011;47592;45.904;8.978;2022-10-16T16:16:53;38.72;;;25.23;;
61685;SDS011;47592;45.904;8.978;2022-10-16T16:19:19;34.53;;;24.15;;
61685;SDS011;47592;45.904;8.978;2022-10-16T16:21:46;36.60;;;24.42;;
61685;SDS011;47592;45.904;8.978;2022-10-16T16:24:12;33.90;;;23.95;;
61685;SDS011;47592;45.904;8.978;2022-10-16T16:26:38;33.97;;;24.15;;
61685;SDS011;47592;45.904;8.978;2022-10-16T16:29:04;32.75;;;23.25;;
61685;SDS011;47592;45.904;8.978;2022-10-16T16:31:31;33.15;;;23.58;;
61685;SDS011;47592;45.904;8.978;2022-10-16T16:33:57;36.50;;;23.73;;
61685;SDS011;47592;45.904;8.978;2022-10-16T16:36:23;35.50;;;24.25;;
61685;SDS011;47592;45.904;8.978;2022-10-16T16:38:49;33.45;;;23.27;;
61685;SDS011;47592;45.904;8.978;2022-10-16T16:41:16;36.72;;;24.80;;
61685;SDS011;47592;45.904;8.978;2022-10-16T16:43:43;36.42;;;24.10;;